Flight Track Log - Related Links

Times and Time Zones

All times are in EST time to prevent confusion due to time zone crossing. See the N528QS flight status page for this flight to view local times or setup timezone preferences in your user account.

Time Position Orientation Groundspeed Altitude Reporting Facility
EST Latitude Longitude Course Direction KTS MPH feet Rate Location/Type
Thu 06:39:00 PM 29.7101 -81.9461 26° Northeast  Level Estimated
Thu 06:40:00 PM 29.8293 -81.8722 28° Northeast  Level Estimated
Thu 06:41:00 PM 29.9485 -81.7980 28° Northeast  Level Estimated
Thu 06:42:00 PM 30.0676 -81.7237 28° Northeast  Level Estimated
Thu 06:43:00 PM 30.1867 -81.6492 28° Northeast  Level Estimated
Thu 06:44:00 PM 30.3057 -81.5746 28° Northeast  Level Estimated
Thu 06:45:00 PM 30.4247 -81.4997 28° Northeast  Level Estimated
Thu 06:46:00 PM 30.5436 -81.4247 29° Northeast  Level Estimated
Thu 06:47:00 PM 30.6625 -81.3495 29° Northeast  Level Estimated
Thu 06:48:00 PM 30.7814 -81.2741 29° Northeast  Level Estimated
Thu 06:49:00 PM 30.9002 -81.1985 29° Northeast  Level Estimated
Thu 06:50:00 PM 31.0190 -81.1228 29° Northeast  Level Estimated
Thu 06:51:00 PM 31.1377 -81.0468 29° Northeast  Level Estimated
Thu 06:52:00 PM 31.2564 -80.9706 29° Northeast  Level Estimated
Thu 06:53:00 PM 31.3750 -80.8943 29° Northeast  Level Estimated
Thu 06:54:00 PM 31.4936 -80.8178 29° Northeast  Level Estimated
Thu 06:55:00 PM 31.6122 -80.7411 29° Northeast  Level Estimated
Thu 06:56:00 PM 31.7307 -80.6641 29° Northeast  Level Estimated
Thu 06:57:00 PM 31.8491 -80.5870 29° Northeast  Level Estimated
Thu 06:58:00 PM 31.9676 -80.5097 29° Northeast  Level Estimated
Thu 06:58:20 PM 23.9414 -86.1836 29° Northeast 709 816 41,000  Level Houston Center
Thu 06:59:00 PM 32.0859 -80.4322 29° Northeast  Level Estimated
Thu 06:59:22 PM 24.0808 -86.1361 17° North 572 658 41,000  Level Houston Center
Thu 07:00:00 PM 32.2042 -80.3544 29° Northeast  Level Estimated
Thu 07:00:24 PM 24.2119 -86.0533 30° Northeast 558 642 41,000  Level Houston Center
Thu 07:01:00 PM 32.3225 -80.2765 29° Northeast  Level Estimated
Thu 07:01:26 PM 24.3375 -85.9667 32° Northeast 543 625 41,000  Level Houston Center
Thu 07:02:00 PM 32.4407 -80.1984 29° Northeast  Level Estimated
Thu 07:02:28 PM 24.4697 -85.8803 31° Northeast 544 626 41,000  Level Houston Center
Thu 07:03:00 PM 32.5589 -80.1201 29° Northeast  Level Estimated
Thu 07:03:29 PM 24.5997 -85.7931 31° Northeast 545 627 40,900  Level Houston Center
Thu 07:04:31 PM 24.7542 -85.6886 32° Northeast 544 626 41,000  Climbing Houston Center
Thu 07:05:33 PM 24.8836 -85.6019 31° Northeast 544 626 40,900  Descending Houston Center
Thu 07:06:35 PM 25.0053 -85.5161 33° Northeast 539 620 41,000 49 Climbing Houston Center
Thu 07:07:36 PM 25.1339 -85.4283 32° Northeast 540 621 41,000  Level Houston Center
Thu 07:08:38 PM 25.2714 -85.3350 32° Northeast 542 624 41,000  Level Houston Center
Thu 07:09:40 PM 25.3933 -85.2564 30° Northeast 542 624 41,000  Level Houston Center
Thu 07:10:42 PM 25.5289 -85.1881 24° Northeast 537 618 41,000  Level Houston Center
Thu 07:11:43 PM 25.6922 -85.1056 24° Northeast 537 618 41,000  Level Houston Center
Thu 07:12:24 PM 25.7708 -85.0681 23° Northeast 523 602 41,000  Level Miami Center
Thu 07:13:24 PM 25.9211 -84.9908 25° Northeast 523 602 41,000  Level Miami Center
Thu 07:14:24 PM 26.0539 -84.9236 24° Northeast 523 602 41,000  Level Miami Center
Thu 07:15:24 PM 26.1872 -84.8517 26° Northeast 528 608 41,000  Level Miami Center
Thu 07:16:24 PM 26.3264 -84.7847 23° Northeast 534 615 41,000  Level Miami Center
Thu 07:17:24 PM 26.4639 -84.7131 25° Northeast 534 615 41,000  Level Miami Center
Thu 07:17:54 PM 26.5158 -84.6864 25° Northeast 538 619 41,000  Level Houston Center
Thu 07:18:55 PM 26.6522 -84.6161 25° Northeast 538 619 41,000  Level Houston Center
Thu 07:19:57 PM 26.7864 -84.5464 25° Northeast 533 613 41,000  Level Houston Center
Thu 07:20:59 PM 26.9217 -84.4778 24° Northeast 533 613 41,000  Level Houston Center
Thu 07:22:24 PM 27.1411 -84.3672 24° Northeast 529 609 41,000  Level Miami Center
Thu 07:23:24 PM 27.2719 -84.2942 26° Northeast 529 609 41,000  Level Miami Center
Thu 07:24:24 PM 27.4047 -84.2256 25° Northeast 534 615 41,000  Level Miami Center
Thu 07:25:24 PM 27.5419 -84.1547 25° Northeast 534 615 41,000  Level Miami Center
Thu 07:26:24 PM 27.6789 -84.0839 25° Northeast 534 615 41,000  Level Miami Center
Thu 07:27:24 PM 27.8097 -84.0125 26° Northeast 534 615 41,000  Level Miami Center
Thu 07:28:55 PM 28.0061 -83.9103 25° Northeast 546 628 41,000  Level Jacksonville Center
Thu 07:29:55 PM 28.1486 -83.8458 22° Northeast 546 628 41,000  Level Jacksonville Center
Thu 07:30:55 PM 28.2825 -83.7858 22° Northeast 532 612 41,000  Level Jacksonville Center
Thu 07:31:55 PM 28.4103 -83.6928 33° Northeast 527 606 41,000  Level Jacksonville Center
Thu 07:32:55 PM 28.5342 -83.5919 36° Northeast 539 620 41,000  Level Jacksonville Center
Thu 07:33:55 PM 28.6597 -83.4936 34° Northeast 544 626 41,000  Level Jacksonville Center
Thu 07:34:55 PM 28.7981 -83.3831 35° Northeast 554 638 41,000  Level Jacksonville Center
Thu 07:35:55 PM 28.9256 -83.2864 34° Northeast 548 631 41,000  Level Jacksonville Center
Thu 07:36:55 PM 29.0511 -83.1872 35° Northeast 548 631 41,000  Level Jacksonville Center
Thu 07:37:55 PM 29.1767 -83.0875 35° Northeast 548 631 41,000  Level Jacksonville Center
Thu 07:38:55 PM 29.3019 -82.9903 34° Northeast 548 631 41,000  Level Jacksonville Center
Thu 07:39:55 PM 29.4272 -82.8878 35° Northeast 548 631 41,000  Level Jacksonville Center
Thu 07:40:55 PM 29.5567 -82.7922 33° Northeast 548 631 41,000  Level Jacksonville Center
Thu 07:41:55 PM 29.6797 -82.6942 35° Northeast 548 631 41,000  Level Jacksonville Center
Thu 07:42:55 PM 29.8069 -82.5886 36° Northeast 553 636 41,000  Level Jacksonville Center
Thu 07:43:55 PM 29.9361 -82.4875 34° Northeast 558 642 41,000  Level Jacksonville Center
Thu 07:44:55 PM 30.0608 -82.3933 33° Northeast 548 631 41,000  Level Jacksonville Center
Thu 07:45:55 PM 30.1836 -82.2894 36° Northeast 548 631 41,000  Level Jacksonville Center
Thu 07:46:55 PM 30.3083 -82.1853 36° Northeast 542 624 41,000  Level Jacksonville Center
Thu 07:47:55 PM 30.4331 -82.0878 34° Northeast 542 624 41,000  Level Jacksonville Center
Thu 07:48:55 PM 30.5597 -81.9856 35° Northeast 547 629 41,000  Level Jacksonville Center
Thu 07:49:55 PM 30.6739 -81.9000 33° Northeast 547 629 41,000  Level Jacksonville Center
Thu 07:50:55 PM 30.7983 -81.7969 35° Northeast 547 629 41,000  Level Jacksonville Center
Thu 07:51:55 PM 30.9228 -81.6964 35° Northeast 547 629 41,000  Level Jacksonville Center
Thu 07:52:55 PM 31.0469 -81.5928 36° Northeast 547 629 41,000  Level Jacksonville Center
Thu 07:53:55 PM 31.1753 -81.4917 34° Northeast 547 629 41,000  Level Jacksonville Center
Thu 07:54:55 PM 31.2975 -81.3853 37° Northeast 547 629 41,000  Level Jacksonville Center
Thu 07:55:55 PM 31.4194 -81.2858 35° Northeast 537 618 41,000  Level Jacksonville Center
Thu 07:56:55 PM 31.5578 -81.1714 35° Northeast 542 624 41,000  Level Jacksonville Center
Thu 07:57:55 PM 31.6669 -81.0764 37° Northeast 542 624 41,000  Level Jacksonville Center
Thu 07:58:55 PM 31.8033 -80.9639 35° Northeast 542 624 41,000  Level Jacksonville Center
Thu 07:59:55 PM 31.9247 -80.8608 36° Northeast 537 618 41,000  Level Jacksonville Center
Thu 08:00:55 PM 32.0361 -80.7728 34° Northeast 543 625 41,000 100 Level Jacksonville Center
Thu 08:01:55 PM 32.1739 -80.6542 36° Northeast 543 625 41,200 600 Climbing Jacksonville Center
Thu 08:02:55 PM 32.2931 -80.5531 36° Northeast 535 616 42,200 900 Climbing Jacksonville Center
Thu 08:03:55 PM 32.4144 -80.4464 37° Northeast 529 609 43,000 400 Climbing Jacksonville Center
Thu 08:04:55 PM 32.5356 -80.3447 35° Northeast 534 615 43,000  Level Jacksonville Center
Thu 08:05:55 PM 32.6544 -80.2425 36° Northeast 534 615 43,000  Level Jacksonville Center
Thu 08:06:55 PM 32.7775 -80.1378 36° Northeast 534 615 43,000  Level Jacksonville Center
Thu 08:07:55 PM 32.8961 -80.0303 37° Northeast 539 620 43,000  Level Jacksonville Center
Thu 08:08:55 PM 33.0167 -79.9175 38° Northeast 545 627 43,000  Level Jacksonville Center
Thu 08:09:55 PM 33.1369 -79.8017 39° Northeast 551 634 43,000  Level Jacksonville Center
Thu 08:10:55 PM 33.2533 -79.6908 39° Northeast 551 634 43,000  Level Jacksonville Center
Thu 08:11:55 PM 33.3714 -79.5747 39° Northeast 551 634 43,000  Level Jacksonville Center
Thu 08:12:55 PM 33.4914 -79.4583 39° Northeast 546 628 43,000  Level Jacksonville Center
Thu 08:13:55 PM 33.6092 -79.3414 40° Northeast 551 634 43,000  Level Jacksonville Center
Thu 08:14:55 PM 33.7025 -79.2503 39° Northeast 551 634 43,000  Level Jacksonville Center
Thu 08:15:55 PM 33.8261 -79.1278 39° Northeast 537 618 43,000  Level Jacksonville Center
Thu 08:18:10 PM 34.1003 -78.8572 39° Northeast 527 606 43,000  Level Washington Center
Thu 08:19:10 PM 34.2031 -78.7558 39° Northeast 527 606 43,000  Level Washington Center
Thu 08:20:09 PM 34.3228 -78.6397 39° Northeast 534 615 43,000  Level Washington Center
Thu 08:21:10 PM 34.4364 -78.5231 40° Northeast 539 620 43,000  Level Washington Center
Thu 08:22:10 PM 34.5433 -78.4108 41° Northeast 539 620 43,000  Level Washington Center
Thu 08:23:11 PM 34.6714 -78.2839 39° Northeast 539 620 43,000  Level Washington Center
Thu 08:24:10 PM 34.7867 -78.1664 40° Northeast 545 627 43,000  Level Washington Center
Thu 08:25:11 PM 34.9125 -78.0361 40° Northeast 534 615 43,000  Level Washington Center
Thu 08:26:09 PM 35.0356 -77.9358 34° Northeast 534 615 43,000  Level Washington Center
Thu 08:27:09 PM 35.1606 -77.8406 32° Northeast 528 608 43,000  Level Washington Center
Thu 08:28:10 PM 35.2833 -77.7422 33° Northeast 523 602 43,000  Level Washington Center
Thu 08:29:09 PM 35.4061 -77.6461 33° Northeast 523 602 43,000  Level Washington Center
Thu 08:30:09 PM 35.5286 -77.5522 32° Northeast 523 602 43,000  Level Washington Center
Thu 08:31:10 PM 35.6514 -77.4556 33° Northeast 528 608 43,000  Level Washington Center
Thu 08:32:11 PM 35.7736 -77.3586 33° Northeast 528 608 43,000  Level Washington Center
Thu 08:33:10 PM 35.8942 -77.2611 33° Northeast 528 608 43,000  Level Washington Center
Thu 08:34:11 PM 36.0164 -77.1636 33° Northeast 528 608 43,000  Level Washington Center
Thu 08:35:09 PM 36.1261 -77.0733 34° Northeast 528 608 43,000  Level Washington Center
Thu 08:36:09 PM 36.2483 -76.9750 33° Northeast 528 608 43,000  Level Washington Center
Thu 08:37:11 PM 36.3725 -76.8767 33° Northeast 528 608 43,000  Level Washington Center
Thu 08:38:10 PM 36.4925 -76.7753 34° Northeast 528 608 43,000  Level Washington Center
Thu 08:39:09 PM 36.6164 -76.6761 33° Northeast 528 608 43,000  Level Washington Center
Thu 08:40:10 PM 36.7383 -76.5742 34° Northeast 528 608 43,000  Level Washington Center
Thu 08:42:09 PM 36.9817 -76.3719 34° Northeast 528 608 43,000  Level Washington Center
Thu 08:43:11 PM 37.1158 -76.2586 34° Northeast 528 608 43,000  Level Washington Center
Thu 08:44:11 PM 37.2353 -76.1581 34° Northeast 528 608 43,000  Level Washington Center
Thu 08:45:11 PM 37.3631 -76.0725 28° Northeast 523 602 43,000  Level Washington Center
Thu 08:46:09 PM 37.4883 -75.9844 29° Northeast 517 595 43,000  Level Washington Center
Thu 08:47:10 PM 37.6158 -75.8933 30° Northeast 512 589 43,000  Level Washington Center
Thu 08:48:11 PM 37.7369 -75.8044 30° Northeast 506 582 43,000  Level Washington Center
Thu 08:49:09 PM 37.8603 -75.7153 30° Northeast 506 582 43,000  Level Washington Center
Thu 08:50:09 PM 37.9856 -75.6261 29° Northeast 506 582 43,000  Level Washington Center
Thu 08:51:09 PM 38.1064 -75.5311 32° Northeast 506 582 43,000  Level Washington Center
Thu 08:52:10 PM 38.2336 -75.4436 28° Northeast 506 582 43,000 -246 Level Washington Center
Thu 08:53:11 PM 38.3439 -75.3667 29° Northeast 501 577 42,500 -908 Descending Washington Center
Thu 08:54:09 PM 38.4689 -75.2761 30° Northeast 501 577 41,200 -763 Descending Washington Center
Thu 08:55:09 PM 38.5894 -75.1825 31° Northeast 507 583 41,000 -600 Descending Washington Center
Thu 08:56:09 PM 38.7142 -75.0861 31° Northeast 507 583 40,000 -1,686 Descending Washington Center
Thu 08:57:10 PM 38.8408 -74.9919 30° Northeast 512 589 37,600 -2,380 Descending Washington Center
Thu 08:58:10 PM 38.9656 -74.9003 30° Northeast 512 589 35,200 -2,300 Descending Washington Center
Thu 08:59:10 PM 39.0836 -74.8081 31° Northeast 507 583 33,000 -2,218 Descending Washington Center
Thu 09:00:09 PM 39.1997 -74.6944 37° Northeast 513 590 30,800 -2,179 Descending Washington Center
Thu 09:02:09 PM 39.4264 -74.4611 38° Northeast 519 597 26,500 -2,167 Descending New York Center
Thu 09:03:09 PM 39.5364 -74.3428 40° Northeast 519 597 24,300 -1,400 Descending New York Center
Thu 09:04:09 PM 39.6439 -74.2325 38° Northeast 507 583 23,700 -950 Descending New York Center
Thu 09:05:09 PM 39.7514 -74.1136 40° Northeast 501 577 22,400 -1,300 Descending New York Center
Thu 09:06:09 PM 39.8567 -74.0050 38° Northeast 490 564 21,100 -1,333 Descending New York Center
Thu 09:07:51 PM 40.0364 -73.8122 39° Northeast 477 549 18,800 -1,230 Descending Boston Center
Thu 09:08:50 PM 40.1375 -73.7033 39° Northeast 474 545 17,800 -893 Descending Boston Center
Thu 09:09:52 PM 40.2425 -73.5922 39° Northeast 463 533 17,000 -390 Descending Boston Center
Thu 09:10:53 PM 40.3406 -73.4850 40° Northeast 462 532 17,000  Level Boston Center
Thu 09:11:55 PM 40.4544 -73.4253 22° Northeast 441 507 17,000 -450 Level Boston Center
Thu 09:12:53 PM 40.5717 -73.3864 14° North 434 499 16,100 -919 Descending Boston Center
Thu 09:13:46 PM 40.6667 -73.3500 16° North 404 465 15,300 -584 Descending New York TRACON
Thu 09:14:46 PM 40.7667 -73.3167 14° North 333 383 15,000 -900 Descending New York TRACON
Thu 09:15:46 PM 40.8333 -73.2333 43° Northeast 367 422 13,500 -1,600 Descending New York TRACON
Thu 09:16:46 PM 40.8833 -73.1167 60° Northeast 396 456 11,800 -1,550 Descending New York TRACON
Thu 09:17:46 PM 40.9500 -73.0333 43° Northeast 347 399 10,400 -1,750 Descending New York TRACON
Thu 09:18:46 PM 41.0000 -73.0667 333° Northwest 256 295 8,300 -2,050 Descending New York TRACON
Thu 09:19:46 PM 41.0333 -73.1500 298° West 249 287 6,300 -1,567 Descending New York TRACON
Thu 09:21:46 PM 41.0833 -73.3167 292° West 244 281 3,600 -1,167 Descending New York TRACON
Thu 09:22:46 PM 41.0500 -73.3833 236° Southwest 219 252 2,800 -842 Descending New York TRACON
Thu 09:23:40 PM 41.0167 -73.4333 229° Southwest 218 251 2,000 -400 Descending New York TRACON
Thu 09:24:46 PM 40.9833 -73.5000 236° Southwest 185 213 2,000  Level New York TRACON
Thu 09:25:46 PM 40.9667 -73.5500 246° West 153 176 2,000  Level New York TRACON
Thu 09:26:46 PM 40.9667 -73.6000 270° West 135 155 2,000  Level New York TRACON
Thu 09:27:46 PM 40.9833 -73.6500 294° West 130 150 2,000 -433 Level New York TRACON
Thu 09:29:46 PM 41.0500 -73.7000 331° Northwest 109 125 700 -650 Descending New York TRACON

Login

Don't have an account? Register now (free) for customized features, flight alerts, and more!